Otis, Indiana
Current Conditions -  °F | °C
As of 12:56 PM on Friday 24 Oct 2014 (Local Time) from KVPZ Reporting Station
Scattered Clouds Scattered Clouds  
Wind Chill: 62°   Ceiling: Unl
Heat Index: 62°   Visibility: 10mi
Dew Point: 50°   Wind: 9mph
Humidity: 65%   Direction: 230°SW
Pressure: 30.03"   Gusts: NA
Location:  41.5386°N, 86.9094°W
Report Text: KVPZ 241756Z AUTO 23008KT 10SM SCT028 17/10 A3003 RMK AO2 SLP167 T01670100 10172 20100 58019 TSNO
Loading
Personal Weather Stations






























Interactive Weather Map
Tropical Storm Tracking
New forecast layout! Learn more

10-Day Weather Forecast

Advertisements
Track Severe Weather on mobile